Lacombe, Canada
Current Conditions -  °F | °C
As of 5:00 AM on Monday 20 Oct 2014 (Local Time) from CYQF Reporting Station
Clear Clear  
Wind Chill: 26°   Ceiling: Unl
Heat Index: 32°   Visibility: 15mi
Dew Point: 28°   Wind: 6mph
Humidity: 87%   Direction: 190°S
Pressure: 29.64"   Gusts: NA
Location:  52.47°N, 113.73°W
Report Text: CYQF 201100Z 19005KT 15SM SKC 00/M02 A2964 RMK SLP058
Loading
Personal Weather Stations






























Interactive Weather Map
Tropical Storm Tracking
New forecast layout! Learn more

10-Day Weather Forecast

Advertisements
Track Severe Weather on mobile